createdAt,value
2023-04-14T00:02:00.587Z,5.43
2023-04-14T00:04:27.627Z,5.67
2023-04-14T00:06:57.000Z,5.70
2023-04-14T00:09:24.070Z,5.47
2023-04-14T00:11:50.850Z,5.40
2023-04-14T00:14:17.494Z,5.80
2023-04-14T00:16:46.092Z,5.33
2023-04-14T00:19:12.830Z,5.10
2023-04-14T00:21:39.474Z,5.33
2023-04-14T00:24:06.171Z,5.30
2023-04-14T00:26:35.768Z,5.20
2023-04-14T00:29:02.721Z,5.20
2023-04-14T00:31:29.550Z,5.03
2023-04-14T00:33:56.191Z,5.27
2023-04-14T00:36:23.125Z,5.80
2023-04-14T00:38:49.836Z,5.87
2023-04-14T00:41:16.495Z,5.30
2023-04-14T00:43:43.085Z,4.97
2023-04-14T00:46:09.903Z,5.23
2023-04-14T00:48:36.916Z,5.47
2023-04-14T00:51:04.177Z,5.30
2023-04-14T00:53:32.571Z,5.53
2023-04-14T00:55:59.835Z,5.30
2023-04-14T00:58:27.106Z,4.90
2023-04-14T01:00:55.753Z,5.00
2023-04-14T01:03:24.464Z,5.60
2023-04-14T01:05:51.485Z,5.97
2023-04-14T01:08:19.403Z,5.47
2023-04-14T01:10:55.123Z,5.63
2023-04-14T01:13:38.227Z,6.00
2023-04-14T01:16:14.620Z,5.30
2023-04-14T01:19:08.807Z,5.40
2023-04-14T01:21:41.617Z,6.07
2023-04-14T01:24:21.750Z,5.60
2023-04-14T01:27:15.794Z,5.50
2023-04-14T01:29:54.631Z,5.63
2023-04-14T01:32:24.543Z,5.23
2023-04-14T01:34:56.373Z,5.33
2023-04-14T01:37:32.044Z,5.50
2023-04-14T01:40:03.500Z,5.47
2023-04-14T01:42:35.299Z,5.40
2023-04-14T01:45:10.778Z,5.63
2023-04-14T01:47:41.863Z,5.30
2023-04-14T01:50:11.244Z,5.50
2023-04-14T01:52:39.209Z,5.17
2023-04-14T01:55:09.591Z,5.43
2023-04-14T01:57:41.541Z,5.20
2023-04-14T02:00:10.607Z,5.20
2023-04-14T02:02:48.053Z,5.07
2023-04-14T02:05:17.025Z,5.10
2023-04-14T02:07:46.851Z,5.30
2023-04-14T02:10:17.531Z,4.77
2023-04-14T02:12:46.848Z,5.53
2023-04-14T02:15:17.224Z,4.93
2023-04-14T02:17:46.669Z,5.13
2023-04-14T02:20:14.655Z,5.10
2023-04-14T02:22:42.122Z,5.20
2023-04-14T02:25:09.249Z,4.77
2023-04-14T02:27:52.488Z,5.00
2023-04-14T02:30:31.783Z,5.87
2023-04-14T02:33:06.510Z,5.63
2023-04-14T02:35:48.141Z,4.77
2023-04-14T02:38:37.719Z,4.80
2023-04-14T02:41:11.358Z,4.90
2023-04-14T02:43:44.332Z,5.53
2023-04-14T02:46:16.679Z,5.47
2023-04-14T02:48:46.325Z,5.63
2023-04-14T02:51:15.305Z,5.53
2023-04-14T02:53:42.089Z,4.57
2023-04-14T02:56:17.428Z,4.87
2023-04-14T02:58:46.606Z,5.27
2023-04-14T03:01:16.459Z,4.90
2023-04-14T03:03:43.860Z,4.90
2023-04-14T03:06:15.682Z,4.90
2023-04-14T03:08:44.428Z,5.20
2023-04-14T03:11:14.165Z,5.13
2023-04-14T03:13:41.889Z,4.83
2023-04-14T03:16:09.470Z,4.30
2023-04-14T03:18:39.157Z,5.00
2023-04-14T03:21:06.625Z,4.93
2023-04-14T03:23:36.006Z,5.47
2023-04-14T03:26:07.682Z,5.60
2023-04-14T03:28:37.820Z,5.53
2023-04-14T03:31:08.790Z,5.00
2023-04-14T03:33:46.868Z,5.30
2023-04-14T03:36:16.523Z,5.20
2023-04-14T03:38:45.607Z,5.23
2023-04-14T03:41:14.562Z,5.13
2023-04-14T03:43:42.951Z,5.30
2023-04-14T03:46:13.630Z,5.40
2023-04-14T03:48:44.309Z,5.50
2023-04-14T03:51:15.816Z,5.77
2023-04-14T03:53:46.289Z,4.80
2023-04-14T03:56:17.189Z,5.00
2023-04-14T03:58:50.533Z,5.50
2023-04-14T04:01:20.451Z,5.10
2023-04-14T04:03:48.640Z,5.40
2023-04-14T04:06:15.936Z,5.17
2023-04-14T04:08:43.077Z,5.17
2023-04-14T04:11:10.634Z,5.20
2023-04-14T04:13:39.084Z,5.40
2023-04-14T04:19:15.475Z,5.50
2023-04-14T04:21:45.719Z,5.87
2023-04-14T04:24:15.371Z,5.50
2023-04-14T04:26:42.382Z,5.40
2023-04-14T04:29:10.340Z,6.67
2023-04-14T04:31:39.723Z,5.30
2023-04-14T04:34:07.980Z,6.00
2023-04-14T04:36:37.995Z,5.90
2023-04-14T04:39:04.715Z,5.23
2023-04-14T04:41:36.490Z,5.60
2023-04-14T04:44:03.481Z,5.33
2023-04-14T04:46:51.977Z,5.67
2023-04-14T04:49:18.789Z,5.80
2023-04-14T04:51:46.235Z,5.43
2023-04-14T04:54:15.588Z,5.70
2023-04-14T04:56:42.219Z,8.60
2023-04-14T04:59:09.663Z,6.63
2023-04-14T05:01:36.675Z,4.67
2023-04-14T05:04:03.444Z,5.03
2023-04-14T05:06:30.228Z,5.03
2023-04-14T05:08:57.319Z,5.07
2023-04-14T05:11:24.840Z,4.53
2023-04-14T05:13:51.429Z,5.80
2023-04-14T05:16:18.325Z,4.83
2023-04-14T05:18:45.333Z,4.80
2023-04-14T05:21:13.225Z,4.50
2023-04-14T05:23:44.476Z,5.13
2023-04-14T05:28:42.679Z,5.60
2023-04-14T05:31:09.658Z,5.20
2023-04-14T05:33:36.439Z,4.60
2023-04-14T05:36:03.230Z,4.00
2023-04-14T05:38:29.942Z,4.00
2023-04-14T05:40:56.647Z,3.80
2023-04-14T05:43:23.314Z,4.70
2023-04-14T05:45:51.276Z,5.30
2023-04-14T05:48:17.961Z,4.07
2023-04-14T05:50:44.810Z,5.50
2023-04-14T05:53:11.998Z,5.00
2023-04-14T05:55:41.457Z,5.07
2023-04-14T05:58:08.167Z,4.60
2023-04-14T06:00:34.873Z,5.10
2023-04-14T06:03:01.844Z,4.73
2023-04-14T06:05:28.835Z,4.30
2023-04-14T06:07:55.897Z,5.43
2023-04-14T06:10:22.531Z,5.37
2023-04-14T06:12:49.216Z,5.33
2023-04-14T06:15:16.016Z,8.73
2023-04-14T06:17:42.931Z,5.80
2023-04-14T06:20:10.200Z,5.80
2023-04-14T06:22:36.933Z,5.40
2023-04-14T06:25:04.087Z,5.40
2023-04-14T06:27:31.109Z,5.20
2023-04-14T06:29:59.984Z,6.10
2023-04-14T06:32:26.692Z,5.23
2023-04-14T06:34:53.586Z,5.70
2023-04-14T06:37:20.376Z,6.20
2023-04-14T06:39:47.060Z,6.30
2023-04-14T06:42:13.900Z,6.00
2023-04-14T06:44:41.270Z,5.37
2023-04-14T06:47:08.979Z,6.23
2023-04-14T06:49:36.984Z,5.80
2023-04-14T06:52:04.901Z,6.20
2023-04-14T06:54:31.983Z,6.93
2023-04-14T06:57:01.051Z,5.80
2023-04-14T06:59:29.210Z,5.23
2023-04-14T07:01:56.484Z,4.10
2023-04-14T07:04:23.304Z,4.90
2023-04-14T07:06:50.006Z,5.13
2023-04-14T07:09:19.382Z,4.97
2023-04-14T07:11:46.469Z,5.20
2023-04-14T07:14:13.239Z,4.87
2023-04-14T07:16:39.878Z,4.90
2023-04-14T07:19:07.079Z,5.63
2023-04-14T07:21:33.783Z,4.13
2023-04-14T07:24:00.657Z,7.23
2023-04-14T07:26:27.592Z,5.10
2023-04-14T07:28:55.176Z,4.50
2023-04-14T07:31:21.884Z,4.33
2023-04-14T07:33:48.539Z,3.80
2023-04-14T07:36:15.248Z,4.10
2023-04-14T07:38:43.686Z,4.10
2023-04-14T07:41:10.349Z,4.50
2023-04-14T07:43:37.174Z,4.47
2023-04-14T07:46:05.491Z,4.00
2023-04-14T07:48:33.371Z,4.17
2023-04-14T07:51:00.033Z,4.73
2023-04-14T07:53:26.672Z,5.33
2023-04-14T07:55:53.329Z,4.10
2023-04-14T07:58:20.052Z,4.20
2023-04-14T08:00:46.837Z,3.90
2023-04-14T08:03:13.945Z,4.27
2023-04-14T08:05:42.155Z,3.60
2023-04-14T08:08:13.228Z,3.60
2023-04-14T08:10:41.900Z,3.73
2023-04-14T08:13:08.736Z,3.33
2023-04-14T08:15:35.585Z,3.07
2023-04-14T08:18:02.350Z,3.70
2023-04-14T08:20:29.102Z,2.70
2023-04-14T08:22:56.749Z,2.80
2023-04-14T08:25:23.725Z,2.73
2023-04-14T08:27:50.431Z,2.77
2023-04-14T08:30:17.122Z,2.17
2023-04-14T08:32:43.905Z,3.13
2023-04-14T08:35:39.536Z,2.50
2023-04-14T08:38:00.750Z,2.57
2023-04-14T08:40:39.657Z,2.43
2023-04-14T08:43:06.918Z,2.37
2023-04-14T08:45:34.091Z,3.13
2023-04-14T08:48:05.047Z,2.73
2023-04-14T08:51:12.280Z,2.90
2023-04-14T08:53:43.578Z,2.13
2023-04-14T08:56:12.702Z,3.33
2023-04-14T08:58:39.989Z,2.67
2023-04-14T09:01:08.290Z,2.77
2023-04-14T09:03:35.732Z,2.73
2023-04-14T09:06:02.781Z,2.70
2023-04-14T09:08:33.968Z,2.90
2023-04-14T09:11:04.347Z,4.00
2023-04-14T09:13:31.519Z,3.17
2023-04-14T09:15:58.241Z,3.50
2023-04-14T09:18:25.530Z,1.83
2023-04-14T09:21:50.923Z,2.80
2023-04-14T09:23:42.321Z,3.63
2023-04-14T09:26:10.348Z,2.80
2023-04-14T09:28:37.592Z,2.83
2023-04-14T09:31:04.977Z,2.83
2023-04-14T09:33:32.572Z,2.40
2023-04-14T09:35:59.541Z,2.67
2023-04-14T09:38:38.003Z,2.60
2023-04-14T09:41:08.537Z,2.57
2023-04-14T09:43:36.638Z,2.20
2023-04-14T09:46:09.347Z,2.30
2023-04-14T09:48:37.850Z,2.90
2023-04-14T09:51:09.880Z,3.00
2023-04-14T09:53:37.982Z,2.20
2023-04-14T09:56:09.570Z,2.10
2023-04-14T09:58:41.492Z,2.33
2023-04-14T10:01:15.601Z,2.50
2023-04-14T10:03:44.591Z,2.10
2023-04-14T10:06:17.993Z,3.40
2023-04-14T10:08:46.787Z,2.30
2023-04-14T10:11:15.712Z,2.30
2023-04-14T10:13:42.952Z,2.47
2023-04-14T10:16:09.967Z,2.10
2023-04-14T10:18:37.300Z,2.27
2023-04-14T10:21:04.347Z,2.40
2023-04-14T10:23:31.749Z,2.80
2023-04-14T10:25:59.264Z,2.20
2023-04-14T10:28:28.627Z,2.87
2023-04-14T10:30:57.492Z,2.53
2023-04-14T10:33:24.936Z,2.03
2023-04-14T10:35:58.085Z,2.00
2023-04-14T10:38:38.000Z,2.47
2023-04-14T10:41:05.623Z,1.57
2023-04-14T10:43:34.491Z,2.30
2023-04-14T10:46:01.327Z,2.37
2023-04-14T10:48:36.305Z,2.50
2023-04-14T10:51:05.734Z,2.43
2023-04-14T10:53:50.176Z,1.83
2023-04-14T10:56:21.478Z,1.83
2023-04-14T10:58:56.346Z,1.60
2023-04-14T11:01:30.726Z,2.77
2023-04-14T11:04:10.744Z,2.40
2023-04-14T11:06:57.089Z,2.57
2023-04-14T11:09:34.531Z,2.20
2023-04-14T11:12:22.163Z,1.30
2023-04-14T11:14:48.776Z,2.00
2023-04-14T11:17:22.825Z,1.90
2023-04-14T11:19:54.067Z,2.20
2023-04-14T11:22:41.301Z,2.33
2023-04-14T11:25:11.304Z,2.17
2023-04-14T11:27:38.348Z,1.67
2023-04-14T11:30:07.731Z,2.50
2023-04-14T11:32:50.126Z,2.60
2023-04-14T11:35:17.525Z,2.67
2023-04-14T11:37:45.936Z,2.60
2023-04-14T11:40:14.531Z,2.37
2023-04-14T11:42:46.544Z,2.73
2023-04-14T11:45:17.735Z,2.77
2023-04-14T11:47:56.859Z,3.17
2023-04-14T11:50:23.826Z,2.80
2023-04-14T11:52:50.500Z,2.90
2023-04-14T11:55:17.600Z,2.80
2023-04-14T11:57:45.823Z,2.90
2023-04-14T12:00:16.093Z,2.90
2023-04-14T12:02:45.030Z,3.30
2023-04-14T12:05:16.400Z,2.90
2023-04-14T12:07:44.468Z,2.73
2023-04-14T12:10:12.383Z,3.20
2023-04-14T12:12:39.019Z,2.87
2023-04-14T12:15:06.312Z,2.73
2023-04-14T12:17:33.174Z,3.80
2023-04-14T12:19:59.810Z,2.97
2023-04-14T12:22:28.244Z,3.23
2023-04-14T12:24:56.917Z,3.00
2023-04-14T12:27:24.705Z,4.30
2023-04-14T12:29:52.166Z,3.30
2023-04-14T12:32:18.901Z,2.80
2023-04-14T12:34:57.685Z,2.73
2023-04-14T12:37:28.748Z,2.70
2023-04-14T12:40:06.245Z,3.23
2023-04-14T12:42:47.765Z,2.70
2023-04-14T12:45:16.109Z,3.50
2023-04-14T12:47:52.918Z,2.50
2023-04-14T12:50:28.316Z,3.00
2023-04-14T12:52:59.880Z,6.57
2023-04-14T12:55:29.522Z,3.37
2023-04-14T12:57:58.310Z,3.20
2023-04-14T13:00:27.435Z,3.50
2023-04-14T13:02:55.975Z,3.00
2023-04-14T13:05:23.129Z,2.73
2023-04-14T13:07:49.818Z,2.80
2023-04-14T13:10:16.514Z,3.50
2023-04-14T13:12:43.088Z,3.23
2023-04-14T13:15:30.935Z,2.90
2023-04-14T13:17:56.846Z,3.07
2023-04-14T13:20:23.512Z,3.23
2023-04-14T13:22:50.101Z,3.60
2023-04-14T13:25:16.781Z,3.03
2023-04-14T13:27:43.356Z,2.97
2023-04-14T13:30:10.360Z,3.30
2023-04-14T13:32:37.255Z,3.40
2023-04-14T13:35:04.075Z,3.27
2023-04-14T13:37:30.888Z,3.50
2023-04-14T13:39:57.473Z,3.40
2023-04-14T13:42:24.069Z,2.93
2023-04-14T13:44:50.758Z,3.10
2023-04-14T13:47:18.758Z,3.57
2023-04-14T13:49:45.338Z,3.50
2023-04-14T13:52:11.965Z,2.80
2023-04-14T13:54:38.576Z,3.30
2023-04-14T13:57:05.242Z,3.57
2023-04-14T13:59:31.939Z,3.70
2023-04-14T14:01:58.640Z,2.90
2023-04-14T14:04:25.497Z,3.33
2023-04-14T14:06:52.391Z,2.60
2023-04-14T14:09:18.975Z,3.20
2023-04-14T14:11:46.579Z,3.10
2023-04-14T14:14:13.319Z,2.90
2023-04-14T14:16:40.011Z,4.33
2023-04-14T14:19:08.260Z,2.87
2023-04-14T14:21:34.886Z,3.20
2023-04-14T14:24:01.952Z,3.00
2023-04-14T14:26:28.723Z,3.30
2023-04-14T14:28:55.303Z,4.60
2023-04-14T14:31:21.911Z,3.37
2023-04-14T14:33:48.538Z,3.70
2023-04-14T14:36:15.283Z,3.80
2023-04-14T14:38:41.888Z,3.43
2023-04-14T14:41:08.546Z,3.23
2023-04-14T14:43:36.096Z,3.40
2023-04-14T14:46:02.920Z,3.47
2023-04-14T14:48:29.514Z,3.10
2023-04-14T14:50:56.250Z,2.90
2023-04-14T14:53:22.885Z,2.87
2023-04-14T14:55:49.478Z,2.50
2023-04-14T14:58:16.440Z,2.30
2023-04-14T15:00:43.121Z,3.10
2023-04-14T15:03:09.945Z,2.47
2023-04-14T15:05:38.207Z,3.50
2023-04-14T15:08:04.835Z,2.60
2023-04-14T15:10:31.478Z,2.90
2023-04-14T15:12:58.210Z,3.00
2023-04-14T15:15:24.817Z,3.43
2023-04-14T15:17:51.442Z,3.07
2023-04-14T15:20:18.066Z,3.40
2023-04-14T15:22:44.722Z,3.63
2023-04-14T15:25:11.555Z,4.37
2023-04-14T15:27:38.162Z,3.93
2023-04-14T15:30:05.420Z,3.83
2023-04-14T15:32:32.210Z,4.30
2023-04-14T15:34:58.997Z,4.80
2023-04-14T15:37:26.276Z,4.67
2023-04-14T15:39:52.950Z,4.17
2023-04-14T15:42:19.629Z,3.50
2023-04-14T15:44:46.360Z,4.00
2023-04-14T15:47:12.937Z,2.93
2023-04-14T15:49:39.579Z,3.40
2023-04-14T15:52:06.173Z,3.73
2023-04-14T15:54:33.618Z,3.63
2023-04-14T15:57:00.228Z,4.43
2023-04-14T15:59:28.681Z,4.87
2023-04-14T16:01:56.007Z,5.47
2023-04-14T16:04:23.381Z,4.60
2023-04-14T16:06:50.073Z,4.50
2023-04-14T16:09:16.750Z,4.30
2023-04-14T16:11:43.427Z,4.60
2023-04-14T16:14:10.121Z,4.07
2023-04-14T16:16:36.825Z,3.97
2023-04-14T16:19:03.638Z,3.53
2023-04-14T16:21:30.477Z,2.90
2023-04-14T16:23:57.068Z,3.47
2023-04-14T16:26:25.059Z,3.07
2023-04-14T16:28:52.431Z,3.60
2023-04-14T16:31:19.110Z,3.67
2023-04-14T16:33:45.992Z,3.50
2023-04-14T16:36:12.781Z,3.13
2023-04-14T16:38:39.408Z,3.17
2023-04-14T16:41:06.027Z,3.23
2023-04-14T16:43:32.700Z,2.63
2023-04-14T16:46:07.019Z,2.50
2023-04-14T16:48:35.650Z,2.23
2023-04-14T16:51:10.423Z,2.77
2023-04-14T16:53:39.917Z,2.37
2023-04-14T16:56:08.319Z,2.23
2023-04-14T16:58:37.803Z,2.27
2023-04-14T17:01:06.094Z,3.00
2023-04-14T17:03:33.271Z,2.70
2023-04-14T17:06:00.161Z,3.50
2023-04-14T17:08:26.815Z,3.30
2023-04-14T17:10:53.403Z,3.40
2023-04-14T17:13:21.222Z,3.50
2023-04-14T17:15:58.754Z,3.43
2023-04-14T17:18:33.362Z,3.90
2023-04-14T17:20:59.971Z,4.00
2023-04-14T17:23:27.235Z,3.60
2023-04-14T17:25:55.289Z,4.07
2023-04-14T17:28:22.696Z,4.60
2023-04-14T17:30:50.075Z,4.10
2023-04-14T17:33:17.267Z,2.80
2023-04-14T17:35:43.977Z,4.00
2023-04-14T17:38:10.911Z,3.47
2023-04-14T17:40:37.579Z,3.33
2023-04-14T17:43:07.222Z,4.67
2023-04-14T17:45:34.997Z,4.30
2023-04-14T17:48:01.739Z,4.07
2023-04-14T17:50:29.315Z,4.40
2023-04-14T17:52:57.344Z,4.10
2023-04-14T17:55:24.075Z,4.60
2023-04-14T17:57:51.517Z,4.60
2023-04-14T18:00:18.862Z,5.40
2023-04-14T18:02:45.635Z,4.97
2023-04-14T18:05:13.053Z,5.07
2023-04-14T18:07:41.304Z,2.57
2023-04-14T18:10:08.454Z,4.30
2023-04-14T18:12:35.085Z,4.50
2023-04-14T18:15:01.849Z,4.43
2023-04-14T18:17:29.013Z,5.23
2023-04-14T18:19:58.627Z,4.60
2023-04-14T18:22:26.524Z,4.90
2023-04-14T18:24:53.648Z,5.17
2023-04-14T18:29:51.133Z,4.97
2023-04-14T18:32:18.034Z,5.20
2023-04-14T18:34:44.820Z,6.20
2023-04-14T18:37:11.591Z,5.20
2023-04-14T18:39:38.177Z,6.23
2023-04-14T18:42:05.196Z,6.30
2023-04-14T18:44:31.808Z,6.37
2023-04-14T18:46:58.467Z,6.80
2023-04-14T18:49:25.242Z,6.57
2023-04-14T18:51:53.507Z,7.37
2023-04-14T18:54:21.827Z,6.57
2023-04-14T18:56:48.960Z,7.00
2023-04-14T18:59:15.663Z,7.50
2023-04-14T19:01:42.326Z,7.80
2023-04-14T19:04:09.095Z,7.97
2023-04-14T19:06:35.983Z,8.03
2023-04-14T19:09:04.327Z,7.30
2023-04-14T19:11:35.940Z,8.03
2023-04-14T19:14:04.486Z,9.17
2023-04-14T19:16:31.275Z,9.13
2023-04-14T19:18:58.536Z,8.60
2023-04-14T19:21:26.002Z,9.10
2023-04-14T19:23:54.436Z,7.77
2023-04-14T19:26:21.263Z,7.30
2023-04-14T19:28:48.021Z,6.10
2023-04-14T19:31:15.606Z,5.87
2023-04-14T19:33:42.199Z,6.00
2023-04-14T19:36:16.343Z,4.87
2023-04-14T19:38:43.388Z,5.80
2023-04-14T19:41:10.571Z,5.77
2023-04-14T19:43:37.556Z,4.70
2023-04-14T19:46:09.422Z,4.83
2023-04-14T19:48:36.396Z,5.37
2023-04-14T19:51:03.888Z,4.83
2023-04-14T19:53:30.681Z,4.87
2023-04-14T19:55:58.479Z,5.80
2023-04-14T19:58:27.541Z,5.00
2023-04-14T20:00:57.101Z,6.57
2023-04-14T20:03:24.775Z,5.50
2023-04-14T20:05:56.818Z,6.10
2023-04-14T20:08:24.977Z,6.50
2023-04-14T20:10:53.073Z,6.30
2023-04-14T20:13:21.330Z,6.40
2023-04-14T20:15:49.218Z,7.20
2023-04-14T20:18:17.795Z,8.23
2023-04-14T20:20:45.643Z,7.90
2023-04-14T20:23:12.308Z,7.40
2023-04-14T20:25:39.135Z,6.87
2023-04-14T20:28:07.379Z,7.37
2023-04-14T20:30:34.145Z,7.17
2023-04-14T20:33:05.840Z,7.07
2023-04-14T20:35:35.897Z,6.87
2023-04-14T20:38:02.782Z,7.57
2023-04-14T20:40:30.043Z,6.93
2023-04-14T20:42:56.799Z,7.73
2023-04-14T20:45:23.612Z,7.47
2023-04-14T20:47:50.862Z,7.27
2023-04-14T20:50:18.644Z,6.70
2023-04-14T20:52:45.310Z,6.80
2023-04-14T20:55:13.302Z,6.63
2023-04-14T20:57:41.672Z,6.23
2023-04-14T21:00:11.859Z,6.20
2023-04-14T21:02:38.909Z,7.00
2023-04-14T21:05:06.146Z,6.30
2023-04-14T21:07:34.835Z,5.07
2023-04-14T21:10:01.639Z,6.03
2023-04-14T21:12:35.249Z,6.13
2023-04-14T21:15:29.273Z,6.80
2023-04-14T21:17:53.773Z,5.97
2023-04-14T21:20:20.870Z,5.30
2023-04-14T21:22:47.513Z,5.37
2023-04-14T21:25:14.241Z,5.33
2023-04-14T21:27:41.500Z,5.30
2023-04-14T21:30:09.102Z,5.13
2023-04-14T21:32:35.811Z,5.07
2023-04-14T21:35:02.533Z,6.03
2023-04-14T21:37:29.264Z,6.07
2023-04-14T21:39:56.050Z,6.53
2023-04-14T21:42:22.730Z,6.17
2023-04-14T21:44:49.325Z,6.63
2023-04-14T21:47:16.266Z,6.73
2023-04-14T21:49:42.894Z,6.60
2023-04-14T21:52:10.069Z,6.97
2023-04-14T21:54:40.163Z,6.17
2023-04-14T21:57:07.135Z,5.90
2023-04-14T21:59:33.711Z,5.97
2023-04-14T22:02:00.928Z,5.40
2023-04-14T22:04:35.791Z,5.87
2023-04-14T22:07:05.006Z,6.00
2023-04-14T22:09:33.136Z,5.30
2023-04-14T22:12:00.325Z,4.73
2023-04-14T22:14:27.576Z,4.83
2023-04-14T22:16:54.933Z,5.17
2023-04-14T22:19:21.661Z,4.17
2023-04-14T22:21:48.571Z,4.00
2023-04-14T22:24:15.218Z,3.90
2023-04-14T22:26:42.021Z,3.23
2023-04-14T22:29:10.342Z,2.47
2023-04-14T22:31:38.093Z,3.80
2023-04-14T22:34:04.853Z,4.00
2023-04-14T22:36:31.579Z,3.63
2023-04-14T22:38:58.186Z,3.60
2023-04-14T22:41:24.918Z,4.17
2023-04-14T22:43:51.778Z,4.20
2023-04-14T22:46:18.526Z,4.07
2023-04-14T22:48:45.144Z,4.40
2023-04-14T22:51:11.801Z,1.70
2023-04-14T22:53:38.435Z,4.90
2023-04-14T22:56:05.247Z,4.93
2023-04-14T22:58:39.089Z,4.60
2023-04-14T23:01:19.115Z,4.17
2023-04-14T23:03:49.957Z,2.17
2023-04-14T23:06:17.437Z,1.20
2023-04-14T23:08:44.098Z,3.67
2023-04-14T23:11:10.896Z,3.57
2023-04-14T23:13:37.506Z,3.47
2023-04-14T23:16:04.400Z,3.57
2023-04-14T23:18:31.149Z,3.47
2023-04-14T23:20:58.497Z,3.03
2023-04-14T23:23:25.167Z,1.10
2023-04-14T23:25:51.960Z,2.97
2023-04-14T23:28:18.594Z,3.30
2023-04-14T23:30:45.236Z,3.43
2023-04-14T23:33:11.858Z,3.47
2023-04-14T23:35:38.885Z,3.30
2023-04-14T23:38:05.708Z,1.30
2023-04-14T23:40:33.829Z,3.30
2023-04-14T23:43:01.349Z,4.03
2023-04-14T23:45:28.354Z,3.27
2023-04-14T23:47:55.467Z,1.37
2023-04-14T23:50:22.201Z,1.10
2023-04-14T23:52:49.079Z,3.23
2023-04-14T23:55:18.464Z,1.30
2023-04-14T23:57:45.193Z,2.13
